createdAt,value
2022-08-02T00:00:51.608Z,78.3
2022-08-02T00:02:01.722Z,78.5
2022-08-02T00:03:11.840Z,78.6
2022-08-02T00:04:21.969Z,78.6
2022-08-02T00:05:32.071Z,79.6
2022-08-02T00:06:42.203Z,79.3
2022-08-02T00:07:52.312Z,79.1
2022-08-02T00:09:02.435Z,78.7
2022-08-02T00:10:12.558Z,78.9
2022-08-02T00:11:22.675Z,78.5
2022-08-02T00:12:31.799Z,78.6
2022-08-02T00:13:41.932Z,78.7
2022-08-02T00:14:52.036Z,79.1
2022-08-02T00:16:02.153Z,79
2022-08-02T00:17:12.285Z,79.3
2022-08-02T00:18:22.400Z,78.8
2022-08-02T00:19:32.518Z,78.8
2022-08-02T00:20:42.634Z,78.9
2022-08-02T00:21:52.752Z,79.8
2022-08-02T00:23:02.866Z,79.3
2022-08-02T00:24:12.982Z,79.6
2022-08-02T00:25:23.097Z,79.6
2022-08-02T00:26:33.218Z,79.6
2022-08-02T00:27:42.349Z,79.6
2022-08-02T00:28:52.479Z,79.8
2022-08-02T00:30:02.595Z,79.8
2022-08-02T00:31:12.703Z,80.3
2022-08-02T00:32:22.816Z,80.9
2022-08-02T00:33:32.941Z,79.6
2022-08-02T00:34:43.059Z,79.7
2022-08-02T00:35:53.178Z,78.8
2022-08-02T00:37:03.306Z,79
2022-08-02T00:38:13.425Z,79.2
2022-08-02T00:39:23.526Z,79
2022-08-02T00:40:33.647Z,79.2
2022-08-02T00:41:43.774Z,79.6
2022-08-02T00:42:52.903Z,79
2022-08-02T00:44:03.013Z,79.1
2022-08-02T00:45:13.140Z,78.8
2022-08-02T00:46:23.261Z,77.9
2022-08-02T00:47:33.373Z,77.4
2022-08-02T00:48:43.488Z,78.4
2022-08-02T00:49:52.636Z,78
2022-08-02T00:51:02.745Z,78.1
2022-08-02T00:52:12.878Z,79.5
2022-08-02T00:53:22.986Z,77.6
2022-08-02T00:54:33.115Z,78.8
2022-08-02T00:55:43.221Z,79
2022-08-02T00:56:53.345Z,78.9
2022-08-02T00:58:03.454Z,78.7
2022-08-02T00:59:13.579Z,78.3
2022-08-02T01:00:23.691Z,78.4
2022-08-02T01:01:33.805Z,79.6
2022-08-02T01:02:43.937Z,78.3
2022-08-02T01:03:54.049Z,78.4
2022-08-02T01:05:03.182Z,78.6
2022-08-02T01:06:13.309Z,78
2022-08-02T01:07:23.412Z,76.5
2022-08-02T01:08:33.544Z,77.1
2022-08-02T01:09:43.649Z,78.8
2022-08-02T01:10:53.768Z,76.9
2022-08-02T01:12:03.900Z,77.4
2022-08-02T01:13:14.004Z,77.8
2022-08-02T01:14:24.136Z,77.6
2022-08-02T01:15:34.246Z,78
2022-08-02T01:16:44.360Z,81.2
2022-08-02T01:17:54.479Z,78.3
2022-08-02T01:19:04.592Z,79.3
2022-08-02T01:20:13.740Z,78.2
2022-08-02T01:21:23.848Z,78.3
2022-08-02T01:23:44.084Z,78.7
2022-08-02T01:24:54.198Z,77.2
2022-08-02T01:26:04.323Z,77.6
2022-08-02T01:27:14.451Z,78.1
2022-08-02T01:28:24.567Z,76.3
2022-08-02T01:29:34.668Z,78.6
2022-08-02T01:30:44.798Z,78.1
2022-08-02T01:31:54.916Z,76.4
2022-08-02T01:33:05.021Z,78
2022-08-02T01:34:15.143Z,76.6
2022-08-02T01:35:24.273Z,79.1
2022-08-02T01:36:34.410Z,78.1
2022-08-02T01:37:44.514Z,78.3
2022-08-02T01:38:54.633Z,77.1
2022-08-02T01:40:04.754Z,77.5
2022-08-02T01:41:14.875Z,77.3
2022-08-02T01:42:24.989Z,77.5
2022-08-02T01:43:35.114Z,77.6
2022-08-02T01:44:45.222Z,77.6
2022-08-02T01:45:55.354Z,77.5
2022-08-02T01:47:05.461Z,75.6
2022-08-02T01:48:15.579Z,75.9
2022-08-02T01:49:25.708Z,79.2
2022-08-02T01:50:34.842Z,76.2
2022-08-02T01:51:44.957Z,75.6
2022-08-02T01:52:55.072Z,75.7
2022-08-02T01:54:05.184Z,77.1
2022-08-02T01:55:15.312Z,76.7
2022-08-02T01:56:25.420Z,77.1
2022-08-02T01:57:35.535Z,76.8
2022-08-02T01:58:45.666Z,79.3
2022-08-02T01:59:55.780Z,80.8
2022-08-02T02:01:05.900Z,78.3
2022-08-02T02:02:16.015Z,77.4
2022-08-02T02:03:26.136Z,76.6
2022-08-02T02:04:36.253Z,78.8
2022-08-02T02:05:45.373Z,77.1
2022-08-02T02:06:55.501Z,77.5
2022-08-02T02:08:05.624Z,77.6
2022-08-02T02:09:15.740Z,76.1
2022-08-02T02:10:25.852Z,77
2022-08-02T02:11:35.979Z,76.9
2022-08-02T02:12:46.090Z,77.8
2022-08-02T02:13:56.206Z,78.3
2022-08-02T02:15:06.332Z,79
2022-08-02T02:16:16.443Z,78.9
2022-08-02T02:17:26.569Z,80.6
2022-08-02T02:18:36.672Z,78.5
2022-08-02T02:19:46.795Z,79.7
2022-08-02T02:20:55.933Z,76.2
2022-08-02T02:22:06.047Z,76.6
2022-08-02T02:23:16.177Z,76.1
2022-08-02T02:24:26.296Z,77.1
2022-08-02T02:25:36.413Z,77.6
2022-08-02T02:26:46.520Z,78.6
2022-08-02T02:27:56.632Z,78
2022-08-02T02:29:06.753Z,78.6
2022-08-02T02:30:16.870Z,78.2
2022-08-02T02:31:26.993Z,77
2022-08-02T02:32:37.115Z,78.3
2022-08-02T02:33:47.222Z,79
2022-08-02T02:34:57.338Z,79.7
2022-08-02T02:36:06.508Z,75.8
2022-08-02T02:37:16.608Z,77.1
2022-08-02T02:38:26.713Z,78.3
2022-08-02T02:39:36.844Z,77.3
2022-08-02T02:40:46.952Z,80.2
2022-08-02T02:41:57.062Z,77.6
2022-08-02T02:43:07.184Z,76.8
2022-08-02T02:44:17.310Z,76.2
2022-08-02T02:45:27.425Z,79
2022-08-02T02:46:37.547Z,77.5
2022-08-02T02:47:47.665Z,77.6
2022-08-02T02:48:57.779Z,76.5
2022-08-02T02:50:07.900Z,75.2
2022-08-02T02:51:18.019Z,76
2022-08-02T02:52:27.146Z,79
2022-08-02T02:53:37.262Z,76.2
2022-08-02T02:54:47.388Z,77.1
2022-08-02T02:55:57.497Z,78.2
2022-08-02T02:57:07.628Z,78.6
2022-08-02T02:58:17.745Z,78.5
2022-08-02T02:59:27.850Z,78.3
2022-08-02T03:00:37.983Z,77.1
2022-08-02T03:01:48.102Z,75.5
2022-08-02T03:02:58.212Z,75.1
2022-08-02T03:04:08.327Z,76.8
2022-08-02T03:05:18.444Z,76.3
2022-08-02T03:06:28.563Z,77.1
2022-08-02T03:07:37.710Z,76.4
2022-08-02T03:08:47.814Z,75.9
2022-08-02T03:09:57.955Z,74.2
2022-08-02T03:11:08.048Z,73.7
2022-08-02T03:12:18.180Z,75.8
2022-08-02T03:13:28.282Z,74.5
2022-08-02T03:14:38.403Z,76.9
2022-08-02T03:15:48.532Z,78.5
2022-08-02T03:18:08.763Z,74.2
2022-08-02T03:19:18.879Z,77.2
2022-08-02T03:20:29.004Z,76.6
2022-08-02T03:21:39.125Z,75.6
2022-08-02T03:22:48.242Z,75.7
2022-08-02T03:23:58.357Z,76.1
2022-08-02T03:25:08.488Z,75.5
2022-08-02T03:26:18.598Z,75.5
2022-08-02T03:27:28.724Z,75.6
2022-08-02T03:28:38.831Z,75.5
2022-08-02T03:29:48.963Z,75.7
2022-08-02T03:30:59.078Z,75.8
2022-08-02T03:32:09.185Z,74.8
2022-08-02T03:33:19.301Z,75.2
2022-08-02T03:34:29.430Z,74.2
2022-08-02T03:35:39.540Z,74.7
2022-08-02T03:36:49.666Z,74.5
2022-08-02T03:37:58.788Z,74
2022-08-02T03:39:08.913Z,76.2
2022-08-02T03:40:19.032Z,75.2
2022-08-02T03:41:29.148Z,73
2022-08-02T03:42:39.260Z,73.7
2022-08-02T03:43:49.389Z,73.9
2022-08-02T03:44:59.503Z,73.5
2022-08-02T03:46:09.617Z,76
2022-08-02T03:47:19.738Z,74.9
2022-08-02T03:48:29.860Z,73.9
2022-08-02T03:49:39.982Z,71.2
2022-08-02T03:50:50.101Z,72.3
2022-08-02T03:52:00.209Z,71.6
2022-08-02T03:53:09.347Z,72.2
2022-08-02T03:54:19.463Z,72.3
2022-08-02T03:55:29.577Z,74.9
2022-08-02T03:56:39.699Z,71.2
2022-08-02T03:57:49.830Z,72.4
2022-08-02T03:58:59.936Z,73.8
2022-08-02T04:00:10.051Z,72
2022-08-02T04:01:20.182Z,71.1
2022-08-02T04:02:30.290Z,70.9
2022-08-02T04:03:40.420Z,72
2022-08-02T04:04:50.533Z,68.8
2022-08-02T04:06:00.652Z,69.5
2022-08-02T04:07:10.756Z,70.9
2022-08-02T04:08:19.893Z,72.7
2022-08-02T04:09:30.008Z,72.8
2022-08-02T04:10:40.138Z,67.2
2022-08-02T04:11:50.247Z,72.6
2022-08-02T04:13:00.373Z,74.3
2022-08-02T04:14:10.497Z,72.7
2022-08-02T04:15:20.616Z,73.8
2022-08-02T04:16:30.734Z,67
2022-08-02T04:17:40.834Z,69.8
2022-08-02T04:18:50.967Z,72
2022-08-02T04:20:01.074Z,73.2
2022-08-02T04:21:11.186Z,72.1
2022-08-02T04:22:21.308Z,68.8
2022-08-02T04:23:31.430Z,69.3
2022-08-02T04:24:40.559Z,69.1
2022-08-02T04:25:50.710Z,69.8
2022-08-02T04:27:00.795Z,70.4
2022-08-02T04:28:10.926Z,69.8
2022-08-02T04:29:21.029Z,70.9
2022-08-02T04:30:31.146Z,71.6
2022-08-02T04:31:41.273Z,71.4
2022-08-02T04:32:51.391Z,70.1
2022-08-02T04:34:01.500Z,71.4
2022-08-02T04:35:11.623Z,70.1
2022-08-02T04:36:21.736Z,72.4
2022-08-02T04:37:31.858Z,71.4
2022-08-02T04:38:41.975Z,70.2
2022-08-02T04:39:52.092Z,69.8
2022-08-02T04:41:01.000Z,70
2022-08-02T04:42:11.351Z,69.5
2022-08-02T04:43:21.473Z,71.9
2022-08-02T04:44:31.589Z,67.4
2022-08-02T04:45:41.706Z,70.8
2022-08-02T04:46:50.848Z,68.1
2022-08-02T04:48:00.969Z,65.3
2022-08-02T04:49:11.078Z,66.8
2022-08-02T04:50:21.189Z,67.2
2022-08-02T04:51:31.306Z,69.5
2022-08-02T04:52:41.436Z,67.6
2022-08-02T04:53:51.560Z,66.8
2022-08-02T04:55:01.667Z,67.8
2022-08-02T04:56:11.782Z,66.6
2022-08-02T04:57:21.915Z,67.9
2022-08-02T04:58:32.023Z,68.4
2022-08-02T04:59:42.145Z,68
2022-08-02T05:00:52.266Z,71
2022-08-02T05:02:02.368Z,70
2022-08-02T05:03:11.513Z,72
2022-08-02T05:04:21.648Z,67.7
2022-08-02T05:05:31.749Z,68.1
2022-08-02T05:07:51.993Z,65.5
2022-08-02T05:09:02.103Z,71.5
2022-08-02T05:10:12.213Z,70.1
2022-08-02T05:11:22.345Z,67.7
2022-08-02T05:12:32.454Z,67.9
2022-08-02T05:13:42.575Z,69.1
2022-08-02T05:14:52.685Z,67.8
2022-08-02T05:16:02.802Z,67.9
2022-08-02T05:17:12.936Z,66
2022-08-02T05:18:22.066Z,66.4
2022-08-02T05:19:32.181Z,66.9
2022-08-02T05:20:42.293Z,66.2
2022-08-02T05:21:52.417Z,71.7
2022-08-02T05:23:02.525Z,70.4
2022-08-02T05:24:12.641Z,63
2022-08-02T05:25:22.770Z,63.5
2022-08-02T05:26:32.883Z,68.5
2022-08-02T05:27:42.997Z,68.9
2022-08-02T05:28:53.131Z,65.3
2022-08-02T05:30:03.247Z,66.3
2022-08-02T05:31:13.356Z,71
2022-08-02T05:32:23.469Z,65.9
2022-08-02T05:33:32.615Z,67.7
2022-08-02T05:34:42.723Z,64
2022-08-02T05:35:52.853Z,63.3
2022-08-02T05:37:02.963Z,66.1
2022-08-02T05:38:13.092Z,69.5
2022-08-02T05:39:23.202Z,70.9
2022-08-02T05:40:33.321Z,71.4
2022-08-02T05:41:43.428Z,63.3
2022-08-02T05:42:53.549Z,70
2022-08-02T05:44:03.661Z,69.8
2022-08-02T05:45:13.788Z,71.1
2022-08-02T05:46:23.906Z,69.8
2022-08-02T05:47:34.033Z,67.4
2022-08-02T05:48:44.138Z,65.9
2022-08-02T05:49:54.268Z,58.3
2022-08-02T05:51:03.394Z,62.4
2022-08-02T05:52:13.502Z,62.7
2022-08-02T05:53:23.631Z,63.6
2022-08-02T05:54:33.740Z,62.8
2022-08-02T05:55:43.858Z,62.5
2022-08-02T05:56:53.991Z,66.1
2022-08-02T05:58:04.109Z,64.7
2022-08-02T05:59:14.221Z,67.1
2022-08-02T06:00:24.338Z,64.9
2022-08-02T06:01:34.460Z,61.4
2022-08-02T06:02:44.578Z,60.8
2022-08-02T06:03:54.698Z,58
2022-08-02T06:05:04.820Z,56.9
2022-08-02T06:06:14.920Z,55.6
2022-08-02T06:07:25.051Z,54.8
2022-08-02T06:08:34.187Z,55.4
2022-08-02T06:09:44.301Z,56
2022-08-02T06:10:54.408Z,59.3
2022-08-02T06:12:04.525Z,58.5
2022-08-02T06:13:14.659Z,58.2
2022-08-02T06:14:24.767Z,64.8
2022-08-02T06:15:34.000Z,58.7
2022-08-02T06:16:45.025Z,58.9
2022-08-02T06:17:55.118Z,56.7
2022-08-02T06:19:05.243Z,56.7
2022-08-02T06:20:15.352Z,60.8
2022-08-02T06:21:25.482Z,58.1
2022-08-02T06:22:35.601Z,59.6
2022-08-02T06:23:44.723Z,55.2
2022-08-02T06:24:54.846Z,58.7
2022-08-02T06:26:04.960Z,57.8
2022-08-02T06:27:15.087Z,58.6
2022-08-02T06:28:25.202Z,58
2022-08-02T06:29:35.313Z,58.9
2022-08-02T06:30:45.430Z,59
2022-08-02T06:31:55.547Z,62.6
2022-08-02T06:33:05.683Z,65.6
2022-08-02T06:34:15.795Z,63.4
2022-08-02T06:35:25.913Z,58.9
2022-08-02T06:36:36.023Z,58
2022-08-02T06:37:46.137Z,58
2022-08-02T06:38:55.284Z,58.7
2022-08-02T06:40:05.407Z,58.8
2022-08-02T06:41:15.513Z,57.1
2022-08-02T06:42:25.633Z,61.6
2022-08-02T06:43:35.755Z,58.9
2022-08-02T06:44:45.867Z,57.3
2022-08-02T06:45:55.991Z,58
2022-08-02T06:47:06.105Z,57
2022-08-02T06:49:26.344Z,57.3
2022-08-02T06:50:36.454Z,60.6
2022-08-02T06:51:46.568Z,65.2
2022-08-02T06:52:56.702Z,60.8
2022-08-02T06:54:05.822Z,55.1
2022-08-02T06:55:15.949Z,61.9
2022-08-02T06:56:26.071Z,62.6
2022-08-02T06:57:36.177Z,64.4
2022-08-02T06:58:46.300Z,64.2
2022-08-02T06:59:56.426Z,57.4
2022-08-02T07:01:06.542Z,56.3
2022-08-02T07:02:16.646Z,61.1
2022-08-02T07:03:26.763Z,57
2022-08-02T07:04:36.897Z,60.4
2022-08-02T07:05:47.001Z,63.8
2022-08-02T07:06:57.132Z,64.5
2022-08-02T07:08:07.251Z,62.7
2022-08-02T07:09:16.378Z,61.2
2022-08-02T07:10:26.491Z,63.8
2022-08-02T07:11:36.642Z,63.4
2022-08-02T07:12:46.731Z,59.8
2022-08-02T07:13:56.846Z,55.6
2022-08-02T07:15:06.959Z,58.1
2022-08-02T07:16:17.078Z,62.6
2022-08-02T07:17:27.212Z,61.5
2022-08-02T07:18:37.330Z,59.5
2022-08-02T07:19:47.441Z,58.1
2022-08-02T07:20:57.558Z,58.1
2022-08-02T07:22:07.684Z,59.4
2022-08-02T07:23:17.800Z,59.2
2022-08-02T07:24:27.905Z,62.1
2022-08-02T07:25:37.048Z,61.9
2022-08-02T07:26:47.169Z,58.2
2022-08-02T07:27:57.285Z,57.9
2022-08-02T07:29:07.396Z,59.8
2022-08-02T07:30:17.529Z,58.9
2022-08-02T07:31:27.629Z,58.8
2022-08-02T07:32:37.748Z,58.7
2022-08-02T07:33:47.000Z,60.7
2022-08-02T07:34:57.989Z,59.5
2022-08-02T07:36:08.112Z,60.2
2022-08-02T07:37:18.218Z,61.2
2022-08-02T07:38:28.341Z,59.4
2022-08-02T07:39:38.470Z,59.5
2022-08-02T07:40:48.578Z,61.3
2022-08-02T07:41:57.714Z,60.1
2022-08-02T07:43:07.840Z,64.9
2022-08-02T07:44:17.951Z,61.6
2022-08-02T07:45:28.074Z,61.5
2022-08-02T07:46:38.182Z,63.2
2022-08-02T07:47:48.297Z,64.2
2022-08-02T07:48:58.428Z,63.3
2022-08-02T07:50:08.538Z,66.3
2022-08-02T07:51:18.656Z,66.8
2022-08-02T07:52:28.788Z,65.7
2022-08-02T07:53:38.889Z,60.1
2022-08-02T07:54:49.020Z,58.9
2022-08-02T07:55:59.122Z,57.8
2022-08-02T07:57:08.271Z,57.1
2022-08-02T07:58:18.380Z,57.2
2022-08-02T07:59:28.509Z,56.8
2022-08-02T08:00:38.618Z,59.4
2022-08-02T08:01:48.737Z,59.5
2022-08-02T08:02:58.850Z,59.4
2022-08-02T08:04:08.970Z,58.1
2022-08-02T08:05:19.083Z,58.4
2022-08-02T08:06:29.218Z,59
2022-08-02T08:07:39.333Z,60.4
2022-08-02T08:08:49.444Z,61.1
2022-08-02T08:09:59.553Z,63.9
2022-08-02T08:11:09.689Z,62
2022-08-02T08:12:18.815Z,61.2
2022-08-02T08:13:28.941Z,62.3
2022-08-02T08:14:39.047Z,61.2
2022-08-02T08:15:49.177Z,60.7
2022-08-02T08:16:59.292Z,65.2
2022-08-02T08:18:09.398Z,65.9
2022-08-02T08:19:19.518Z,57.9
2022-08-02T08:20:29.634Z,56.1
2022-08-02T08:21:39.761Z,60.4
2022-08-02T08:22:49.874Z,59.6
2022-08-02T08:24:00.004Z,57.5
2022-08-02T08:25:10.111Z,56.6
2022-08-02T08:26:20.232Z,60.4
2022-08-02T08:27:29.372Z,60
2022-08-02T08:28:39.489Z,55.4
2022-08-02T08:29:49.606Z,58.6
2022-08-02T08:30:59.710Z,56.7
2022-08-02T08:32:09.830Z,55.7
2022-08-02T08:33:19.955Z,55.3
2022-08-02T08:34:30.069Z,54.8
2022-08-02T08:35:40.190Z,54.7
2022-08-02T08:36:50.316Z,53
2022-08-02T08:38:00.434Z,56.6
2022-08-02T08:39:10.541Z,58.7
2022-08-02T08:40:20.662Z,56.7
2022-08-02T08:41:29.803Z,57.5
2022-08-02T08:42:39.931Z,57.4
2022-08-02T08:43:50.046Z,53.7
2022-08-02T08:45:00.158Z,55.8
2022-08-02T08:46:10.285Z,54.2
2022-08-02T08:47:20.434Z,55.1
2022-08-02T08:48:30.517Z,51.7
2022-08-02T08:49:40.632Z,58.5
2022-08-02T08:50:50.759Z,56.4
2022-08-02T08:52:00.867Z,52.6
2022-08-02T08:53:10.981Z,52.5
2022-08-02T08:54:21.112Z,52.5
2022-08-02T08:55:31.228Z,53.6
2022-08-02T08:56:40.354Z,52
2022-08-02T08:57:50.496Z,50.9
2022-08-02T08:59:00.587Z,51.7
2022-08-02T09:00:10.711Z,53.9
2022-08-02T09:01:20.831Z,53.4
2022-08-02T09:02:30.947Z,54.2
2022-08-02T09:03:41.072Z,54.7
2022-08-02T09:04:51.191Z,58
2022-08-02T09:06:01.294Z,56.5
2022-08-02T09:07:11.422Z,52.7
2022-08-02T09:08:21.000Z,55.3
2022-08-02T09:09:31.651Z,50.9
2022-08-02T09:10:41.772Z,50.7
2022-08-02T09:11:50.912Z,50.3
2022-08-02T09:13:01.030Z,50.7
2022-08-02T09:15:21.265Z,56.8
2022-08-02T09:16:31.380Z,55.9
2022-08-02T09:17:41.508Z,56.2
2022-08-02T09:20:01.729Z,50
2022-08-02T09:21:11.851Z,49.5
2022-08-02T09:22:21.971Z,48.5
2022-08-02T09:23:32.085Z,50.2
2022-08-02T09:24:42.203Z,50.7
2022-08-02T09:25:52.318Z,48.6
2022-08-02T09:27:01.449Z,51.5
2022-08-02T09:28:11.568Z,51
2022-08-02T09:29:21.685Z,50.9
2022-08-02T09:30:31.813Z,49.6
2022-08-02T09:31:41.921Z,49.8
2022-08-02T09:32:52.039Z,49
2022-08-02T09:34:02.168Z,48.1
2022-08-02T09:35:12.290Z,46.9
2022-08-02T09:36:22.400Z,47.7
2022-08-02T09:37:32.513Z,49.5
2022-08-02T09:38:42.643Z,48.9
2022-08-02T09:39:52.747Z,49.5
2022-08-02T09:41:02.874Z,47.6
2022-08-02T09:42:12.007Z,46.4
2022-08-02T09:43:22.128Z,47.1
2022-08-02T09:44:32.242Z,48.6
2022-08-02T09:45:42.363Z,49.1
2022-08-02T09:46:52.488Z,47.8
2022-08-02T09:48:02.604Z,49.3
2022-08-02T09:49:12.706Z,46.6
2022-08-02T09:50:22.827Z,44
2022-08-02T09:51:32.945Z,47.9
2022-08-02T09:52:43.071Z,46.4
2022-08-02T09:53:53.191Z,47.2
2022-08-02T09:55:03.296Z,44.7
2022-08-02T09:56:13.414Z,47.8
2022-08-02T09:57:22.564Z,47
2022-08-02T09:58:32.685Z,46.2
2022-08-02T10:00:52.916Z,43.1
2022-08-02T10:03:13.157Z,43.4
2022-08-02T10:04:23.268Z,46.7
2022-08-02T10:05:33.381Z,47.3
2022-08-02T10:06:43.507Z,46.1
2022-08-02T10:07:53.629Z,47
2022-08-02T10:09:03.733Z,46.2
2022-08-02T10:10:13.846Z,47.7
2022-08-02T10:11:23.981Z,47.5
2022-08-02T10:12:33.117Z,47.5
2022-08-02T10:13:43.226Z,42.5
2022-08-02T10:14:53.341Z,48.2
2022-08-02T10:16:03.470Z,45.2
2022-08-02T10:17:13.587Z,43.9
2022-08-02T10:18:23.687Z,40.7
2022-08-02T10:19:33.816Z,42.5
2022-08-02T10:20:43.928Z,40.2
2022-08-02T10:21:54.057Z,41
2022-08-02T10:23:04.171Z,40.5
2022-08-02T10:24:14.292Z,41.6
2022-08-02T10:25:24.398Z,42.4
2022-08-02T10:26:34.526Z,42
2022-08-02T10:27:44.632Z,41.9
2022-08-02T10:28:53.767Z,42.4
2022-08-02T10:30:03.900Z,44.2
2022-08-02T10:31:14.015Z,41.7
2022-08-02T10:32:24.131Z,43.6
2022-08-02T10:33:34.238Z,42
2022-08-02T10:34:44.355Z,44.6
2022-08-02T10:35:54.483Z,44.1
2022-08-02T10:37:04.607Z,44.6
2022-08-02T10:38:14.710Z,43.2
2022-08-02T10:39:24.827Z,42.2
2022-08-02T10:40:34.952Z,41.9
2022-08-02T10:41:45.081Z,41.3
2022-08-02T10:42:55.197Z,40.4
2022-08-02T10:44:04.332Z,39.5
2022-08-02T10:45:14.450Z,40.1
2022-08-02T10:46:24.557Z,40.3
2022-08-02T10:47:34.673Z,40.4
2022-08-02T10:48:44.797Z,39.6
2022-08-02T10:49:54.921Z,38.8
2022-08-02T10:51:05.030Z,38.3
2022-08-02T10:52:15.158Z,38.8
2022-08-02T10:53:25.266Z,38.5
2022-08-02T10:54:35.388Z,38.4
2022-08-02T10:55:45.497Z,38.9
2022-08-02T10:56:55.624Z,40.6
2022-08-02T10:58:05.737Z,41.5
2022-08-02T10:59:14.867Z,42.1
2022-08-02T11:00:24.993Z,44.5
2022-08-02T11:01:35.109Z,44.7
2022-08-02T11:02:45.224Z,44.3
2022-08-02T11:03:55.345Z,44.9
2022-08-02T11:05:05.464Z,42.9
2022-08-02T11:06:15.585Z,42.5
2022-08-02T11:07:25.698Z,43.1
2022-08-02T11:08:35.811Z,43.3
2022-08-02T11:09:45.925Z,40.7
2022-08-02T11:10:56.059Z,40
2022-08-02T11:12:06.174Z,39
2022-08-02T11:13:16.288Z,36.3
2022-08-02T11:14:25.422Z,37
2022-08-02T11:15:35.549Z,37.3
2022-08-02T11:16:45.655Z,37
2022-08-02T11:17:55.777Z,38.3
2022-08-02T11:19:05.891Z,40
2022-08-02T11:20:16.020Z,40.5
2022-08-02T11:21:26.137Z,41.8
2022-08-02T11:22:36.255Z,41.3
2022-08-02T11:23:46.357Z,42.5
2022-08-02T11:24:56.492Z,36.4
2022-08-02T11:26:06.610Z,37.9
2022-08-02T11:27:16.712Z,36.7
2022-08-02T11:28:26.838Z,37.8
2022-08-02T11:29:35.971Z,35.2
2022-08-02T11:30:46.099Z,37.5
2022-08-02T11:31:56.212Z,42.2
2022-08-02T11:33:06.332Z,38.4
2022-08-02T11:34:16.447Z,37.1
2022-08-02T11:35:26.564Z,40.8
2022-08-02T11:36:36.684Z,36
2022-08-02T11:37:46.793Z,35.8
2022-08-02T11:38:56.917Z,34.4
2022-08-02T11:40:07.000Z,35.5
2022-08-02T11:41:17.158Z,34.5
2022-08-02T11:42:27.265Z,37.8
2022-08-02T11:43:37.397Z,36.8
2022-08-02T11:44:47.512Z,31.2
2022-08-02T11:45:56.649Z,34.4
2022-08-02T11:47:06.766Z,33
2022-08-02T11:48:16.880Z,33.7
2022-08-02T11:49:27.004Z,35
2022-08-02T11:50:37.117Z,36.3
2022-08-02T11:51:47.235Z,34
2022-08-02T11:52:57.345Z,30.4
2022-08-02T11:54:07.476Z,36.3
2022-08-02T11:55:17.582Z,38.2
2022-08-02T11:56:27.708Z,38.6
2022-08-02T11:57:37.811Z,35.5
2022-08-02T11:58:47.939Z,31.2
2022-08-02T11:59:58.047Z,33.1
2022-08-02T12:01:08.305Z,33.3
2022-08-02T12:02:18.424Z,33.2
2022-08-02T12:03:28.531Z,32.7
2022-08-02T12:04:38.661Z,33.9
2022-08-02T12:05:48.767Z,30.7
2022-08-02T12:06:58.888Z,32.8
2022-08-02T12:08:09.004Z,32
2022-08-02T12:09:19.120Z,32.5
2022-08-02T12:10:29.250Z,33.9
2022-08-02T12:11:39.356Z,31.5
2022-08-02T12:12:49.488Z,30.6
2022-08-02T12:13:59.593Z,30
2022-08-02T12:15:09.719Z,30.6
2022-08-02T12:16:18.851Z,29.2
2022-08-02T12:17:28.977Z,32.1
2022-08-02T12:18:39.094Z,29.5
2022-08-02T12:19:49.205Z,32.1
2022-08-02T12:20:59.314Z,31.4
2022-08-02T12:22:09.435Z,32.4
2022-08-02T12:23:19.560Z,31.4
2022-08-02T12:24:29.672Z,32.8
2022-08-02T12:25:39.796Z,30.2
2022-08-02T12:26:49.907Z,31
2022-08-02T12:28:00.025Z,33.7
2022-08-02T12:29:10.155Z,31.9
2022-08-02T12:30:20.265Z,32.6
2022-08-02T12:31:29.391Z,32.9
2022-08-02T12:32:39.513Z,31.3
2022-08-02T12:33:49.627Z,34.3
2022-08-02T12:34:59.746Z,34
2022-08-02T12:36:08.898Z,28.6
2022-08-02T12:37:19.018Z,31.6
2022-08-02T12:38:29.122Z,32.6
2022-08-02T12:39:39.248Z,34
2022-08-02T12:40:49.375Z,28.6
2022-08-02T12:41:59.483Z,29
2022-08-02T12:43:09.606Z,31.8
2022-08-02T12:44:19.720Z,34.9
2022-08-02T12:46:39.957Z,33
2022-08-02T12:47:50.078Z,31.2
2022-08-02T12:49:00.203Z,33.3
2022-08-02T12:50:10.307Z,28.9
2022-08-02T12:51:19.444Z,28.2
2022-08-02T12:52:29.562Z,29.8
2022-08-02T12:53:39.686Z,29.3
2022-08-02T12:54:49.813Z,29.7
2022-08-02T12:55:59.931Z,29
2022-08-02T12:57:10.031Z,30.5
2022-08-02T12:58:20.153Z,30.8
2022-08-02T12:59:30.268Z,30.1
2022-08-02T13:01:50.512Z,32.9
2022-08-02T13:03:00.635Z,30.1
2022-08-02T13:04:10.755Z,30.7
2022-08-02T13:05:20.860Z,32.2
2022-08-02T13:06:30.008Z,27.7
2022-08-02T13:07:40.117Z,28.9
2022-08-02T13:08:50.236Z,28.9
2022-08-02T13:10:00.360Z,32
2022-08-02T13:11:10.480Z,30.1
2022-08-02T13:12:20.587Z,25.7
2022-08-02T13:13:30.713Z,28.4
2022-08-02T13:14:40.842Z,29.2
2022-08-02T13:15:50.955Z,29.3
2022-08-02T13:17:01.072Z,27.9
2022-08-02T13:18:11.196Z,28.4
2022-08-02T13:19:21.315Z,27.7
2022-08-02T13:20:31.418Z,29.6
2022-08-02T13:21:40.552Z,26.6
2022-08-02T13:22:50.680Z,26.7
2022-08-02T13:24:00.797Z,26.4
2022-08-02T13:25:10.915Z,27.2
2022-08-02T13:26:21.027Z,27.8
2022-08-02T13:28:41.277Z,26.3
2022-08-02T13:29:51.387Z,31.2
2022-08-02T13:31:01.519Z,30.1
2022-08-02T13:32:11.619Z,32.3
2022-08-02T13:33:21.744Z,29
2022-08-02T13:34:31.861Z,27.5
2022-08-02T13:35:41.978Z,26.7
2022-08-02T13:36:51.120Z,25.8
2022-08-02T13:38:01.241Z,26.1
2022-08-02T13:39:11.355Z,26.2
2022-08-02T13:40:21.471Z,26.9
2022-08-02T13:41:31.598Z,28.9
2022-08-02T13:42:41.707Z,28.9
2022-08-02T13:43:51.829Z,26.2
2022-08-02T13:45:01.946Z,26
2022-08-02T13:46:12.077Z,27.8
2022-08-02T13:47:22.189Z,26.5
2022-08-02T13:48:32.305Z,24.9
2022-08-02T13:49:42.429Z,24.9
2022-08-02T13:50:52.551Z,26.9
2022-08-02T13:52:01.683Z,27.1
2022-08-02T13:54:21.907Z,26.8
2022-08-02T13:55:32.041Z,28.2
2022-08-02T13:56:42.156Z,26.8
2022-08-02T13:57:52.270Z,28.1
2022-08-02T13:59:02.389Z,26.2
2022-08-02T14:00:12.499Z,28.1
2022-08-02T14:01:22.629Z,26.2
2022-08-02T14:02:32.738Z,26
2022-08-02T14:03:42.859Z,24.8
2022-08-02T14:04:52.975Z,31.9
2022-08-02T14:06:03.099Z,30.3
2022-08-02T14:07:12.239Z,32.3
2022-08-02T14:08:22.352Z,25.7
2022-08-02T14:09:32.476Z,25.7
2022-08-02T14:10:42.585Z,27.1
2022-08-02T14:11:52.706Z,25.7
2022-08-02T14:13:02.832Z,27.5
2022-08-02T14:14:12.955Z,26.5
2022-08-02T14:15:23.067Z,26
2022-08-02T14:16:33.184Z,26.8
2022-08-02T14:17:43.297Z,26.1
2022-08-02T14:18:53.416Z,25.2
2022-08-02T14:20:03.537Z,26.6
2022-08-02T14:21:13.667Z,27.5
2022-08-02T14:22:22.806Z,27.4
2022-08-02T14:23:32.907Z,24.7
2022-08-02T14:24:43.039Z,29.4
2022-08-02T14:25:53.153Z,28
2022-08-02T14:27:03.273Z,28.4
2022-08-02T14:28:13.382Z,27.1
2022-08-02T14:29:23.515Z,26.4
2022-08-02T14:30:33.631Z,29.5
2022-08-02T14:31:43.746Z,24.6
2022-08-02T14:32:53.858Z,30.5
2022-08-02T14:34:03.991Z,27.5
2022-08-02T14:35:14.095Z,28.3
2022-08-02T14:36:24.226Z,26.2
2022-08-02T14:37:34.344Z,29.6
2022-08-02T14:38:43.476Z,27.9
2022-08-02T14:39:53.587Z,29.3
2022-08-02T14:41:03.710Z,27.8
2022-08-02T14:42:13.824Z,28.2
2022-08-02T14:43:23.950Z,30.7
2022-08-02T14:44:34.066Z,26.2
2022-08-02T14:45:44.178Z,27.5
2022-08-02T14:46:54.312Z,28.1
2022-08-02T14:48:04.413Z,27.9
2022-08-02T14:49:14.540Z,29.7
2022-08-02T14:50:24.650Z,28.8
2022-08-02T14:51:34.771Z,27.8
2022-08-02T14:52:44.902Z,28.5
2022-08-02T14:53:55.018Z,31.6
2022-08-02T14:55:04.141Z,29.1
2022-08-02T14:56:14.260Z,30.9
2022-08-02T14:57:24.390Z,33
2022-08-02T14:58:34.505Z,31.6
2022-08-02T14:59:44.623Z,32
2022-08-02T15:00:54.748Z,31.1
2022-08-02T15:02:04.849Z,29.6
2022-08-02T15:03:14.985Z,33
2022-08-02T15:04:25.091Z,33.3
2022-08-02T15:05:35.212Z,30
2022-08-02T15:06:45.331Z,35.4
2022-08-02T15:07:55.452Z,31.6
2022-08-02T15:09:05.583Z,35.8
2022-08-02T15:10:15.684Z,33.9
2022-08-02T15:11:24.824Z,32.1
2022-08-02T15:12:34.931Z,31.5
2022-08-02T15:13:45.060Z,30.6
2022-08-02T15:14:55.173Z,31.9
2022-08-02T15:16:05.284Z,31.9
2022-08-02T15:17:15.415Z,31
2022-08-02T15:18:25.520Z,30.8
2022-08-02T15:19:35.644Z,31
2022-08-02T15:20:45.758Z,29.6
2022-08-02T15:21:55.891Z,30.6
2022-08-02T15:23:06.007Z,28.8
2022-08-02T15:24:16.114Z,29.3
2022-08-02T15:25:26.248Z,33.8
2022-08-02T15:26:36.359Z,36.1
2022-08-02T15:27:46.467Z,32.8
2022-08-02T15:28:55.603Z,31.8
2022-08-02T15:30:05.726Z,31.8
2022-08-02T15:31:15.837Z,30.3
2022-08-02T15:32:25.958Z,28.7
2022-08-02T15:33:36.088Z,29.2
2022-08-02T15:34:46.196Z,29.4
2022-08-02T15:35:56.314Z,29.4
2022-08-02T15:37:06.443Z,30.1
2022-08-02T15:38:16.560Z,30.6
2022-08-02T15:39:26.667Z,31.1
2022-08-02T15:40:36.792Z,31.2
2022-08-02T15:41:46.909Z,30.5
2022-08-02T15:42:57.021Z,31.8
2022-08-02T15:44:06.157Z,29.7
2022-08-02T15:45:16.287Z,32.9
2022-08-02T15:47:36.514Z,31.3
2022-08-02T15:48:46.637Z,31.8
2022-08-02T15:49:56.741Z,35.5
2022-08-02T15:51:06.862Z,33.8
2022-08-02T15:52:16.987Z,36
2022-08-02T15:53:27.104Z,35.8
2022-08-02T15:54:37.219Z,31.4